createdAt,value
2022-09-12T00:00:03.239Z,4.7
2022-09-12T00:01:03.253Z,4.7
2022-09-12T00:02:03.375Z,4.6
2022-09-12T00:03:03.238Z,4.6
2022-09-12T00:04:03.258Z,4.6
2022-09-12T00:05:03.228Z,4.6
2022-09-12T00:06:03.226Z,4.6
2022-09-12T00:07:03.250Z,4.7
2022-09-12T00:08:03.224Z,4.6
2022-09-12T00:09:03.251Z,4.6
2022-09-12T00:10:03.240Z,4.6
2022-09-12T00:11:03.233Z,4.5
2022-09-12T00:12:03.234Z,4.5
2022-09-12T00:13:03.234Z,4.5
2022-09-12T00:14:03.247Z,4.5
2022-09-12T00:15:03.222Z,4.4
2022-09-12T00:16:03.237Z,4.4
2022-09-12T00:17:03.234Z,4.4
2022-09-12T00:18:03.224Z,4.4
2022-09-12T00:19:03.235Z,4.4
2022-09-12T00:20:03.237Z,4.4
2022-09-12T00:21:03.226Z,4.4
2022-09-12T00:22:03.225Z,4.4
2022-09-12T00:23:03.226Z,4.4
2022-09-12T00:24:03.264Z,4.4
2022-09-12T00:25:03.246Z,4.4
2022-09-12T00:26:03.223Z,4.4
2022-09-12T00:27:03.219Z,4.4
2022-09-12T00:28:03.244Z,4.4
2022-09-12T00:29:03.264Z,4.4
2022-09-12T00:30:03.236Z,4.3
2022-09-12T00:31:03.224Z,4.3
2022-09-12T00:32:03.235Z,4.4
2022-09-12T00:33:03.312Z,4.4
2022-09-12T00:34:03.259Z,4.4
2022-09-12T00:35:03.247Z,4.3
2022-09-12T00:36:03.245Z,4.3
2022-09-12T00:37:03.234Z,4.3
2022-09-12T00:38:03.229Z,4.3
2022-09-12T00:39:03.262Z,4.3
2022-09-12T00:40:03.302Z,4.3
2022-09-12T00:41:03.236Z,4.3
2022-09-12T00:42:03.245Z,4.4
2022-09-12T00:43:03.238Z,4.4
2022-09-12T00:44:03.251Z,4.4
2022-09-12T00:45:03.220Z,4.4
2022-09-12T00:46:03.272Z,4.4
2022-09-12T00:47:03.242Z,4.4
2022-09-12T00:48:03.234Z,4.4
2022-09-12T00:49:03.247Z,4.4
2022-09-12T00:50:03.279Z,4.3
2022-09-12T00:51:03.238Z,4.3
2022-09-12T00:52:03.224Z,4.4
2022-09-12T00:53:03.232Z,4.5
2022-09-12T00:54:03.261Z,4.5
2022-09-12T00:55:03.312Z,4.5
2022-09-12T00:56:04.160Z,4.5
2022-09-12T00:57:03.280Z,4.5
2022-09-12T00:58:03.260Z,4.5
2022-09-12T00:59:03.244Z,4.5
2022-09-12T01:00:03.232Z,4.4
2022-09-12T01:01:03.344Z,4.4
2022-09-12T01:02:03.413Z,4.4
2022-09-12T01:03:03.232Z,4.3
2022-09-12T01:04:03.289Z,4.3
2022-09-12T01:05:03.243Z,4.3
2022-09-12T01:06:03.236Z,4.4
2022-09-12T01:07:03.229Z,4.4
2022-09-12T01:08:03.250Z,4.4
2022-09-12T01:09:03.259Z,4.4
2022-09-12T01:10:03.244Z,4.4
2022-09-12T01:11:03.247Z,4.4
2022-09-12T01:12:03.235Z,4.4
2022-09-12T01:13:03.238Z,4.5
2022-09-12T01:14:03.280Z,4.5
2022-09-12T01:15:03.243Z,4.5
2022-09-12T01:16:03.323Z,4.5
2022-09-12T01:17:03.238Z,4.5
2022-09-12T01:18:03.226Z,4.5
2022-09-12T01:19:03.260Z,4.4
2022-09-12T01:20:03.238Z,4.4
2022-09-12T01:21:03.252Z,4.3
2022-09-12T01:22:03.231Z,4.4
2022-09-12T01:23:03.255Z,4.3
2022-09-12T01:24:03.250Z,4.4
2022-09-12T01:25:03.270Z,4.4
2022-09-12T01:26:03.288Z,4.4
2022-09-12T01:27:03.239Z,4.3
2022-09-12T01:28:03.236Z,4.3
2022-09-12T01:29:03.269Z,4.4
2022-09-12T01:30:03.236Z,4.4
2022-09-12T01:31:03.239Z,4.4
2022-09-12T01:32:03.316Z,4.4
2022-09-12T01:33:03.237Z,4.5
2022-09-12T01:34:03.246Z,4.5
2022-09-12T01:35:03.271Z,4.5
2022-09-12T01:36:03.244Z,4.5
2022-09-12T01:37:03.284Z,4.5
2022-09-12T01:38:03.235Z,4.5
2022-09-12T01:39:03.275Z,4.4
2022-09-12T01:40:03.325Z,4.4
2022-09-12T01:41:03.247Z,4.4
2022-09-12T01:42:03.228Z,4.3
2022-09-12T01:43:03.242Z,4.3
2022-09-12T01:44:03.272Z,4.3
2022-09-12T01:45:03.239Z,4.4
2022-09-12T01:46:03.284Z,4.4
2022-09-12T01:47:03.263Z,4.5
2022-09-12T01:48:03.285Z,4.4
2022-09-12T01:49:03.251Z,4.4
2022-09-12T01:50:03.234Z,4.4
2022-09-12T01:52:03.242Z,4.3
2022-09-12T01:53:03.296Z,4.3
2022-09-12T01:54:03.269Z,4.4
2022-09-12T01:55:07.671Z,4.4
2022-09-12T01:56:10.162Z,4.4
2022-09-12T01:57:03.241Z,4.3
2022-09-12T01:58:03.244Z,4.3
2022-09-12T01:59:03.286Z,4.4
2022-09-12T02:00:03.258Z,4.4
2022-09-12T02:01:03.299Z,4.3
2022-09-12T02:02:03.389Z,4.3
2022-09-12T02:03:03.246Z,4.3
2022-09-12T02:04:03.260Z,4.3
2022-09-12T02:05:03.266Z,4.4
2022-09-12T02:06:03.280Z,4.4
2022-09-12T02:07:03.238Z,4.4
2022-09-12T02:08:03.248Z,4.3
2022-09-12T02:09:03.275Z,4.3
2022-09-12T02:10:03.240Z,4.4
2022-09-12T02:11:03.243Z,4.4
2022-09-12T02:12:03.252Z,4.4
2022-09-12T02:13:03.237Z,4.4
2022-09-12T02:14:03.252Z,4.5
2022-09-12T02:15:03.262Z,4.4
2022-09-12T02:16:03.246Z,4.4
2022-09-12T02:17:03.265Z,4.5
2022-09-12T02:18:03.243Z,4.4
2022-09-12T02:19:03.274Z,4.4
2022-09-12T02:20:03.248Z,4.4
2022-09-12T02:21:03.238Z,4.4
2022-09-12T02:22:03.251Z,4.4
2022-09-12T02:23:03.242Z,4.4
2022-09-12T02:24:03.255Z,4.4
2022-09-12T02:25:03.266Z,4.4
2022-09-12T02:26:03.248Z,4.4
2022-09-12T02:27:03.245Z,4.3
2022-09-12T02:28:03.250Z,4.3
2022-09-12T02:29:03.263Z,4.4
2022-09-12T02:30:03.252Z,4.3
2022-09-12T02:31:03.326Z,4.3
2022-09-12T02:32:03.251Z,4.3
2022-09-12T02:33:03.297Z,4.3
2022-09-12T02:34:03.316Z,4.2
2022-09-12T02:35:03.245Z,4.3
2022-09-12T02:36:03.254Z,4.3
2022-09-12T02:37:03.279Z,4.2
2022-09-12T02:38:03.245Z,4.3
2022-09-12T02:39:03.276Z,4.3
2022-09-12T02:40:03.297Z,4.3
2022-09-12T02:41:03.265Z,4.3
2022-09-12T02:42:03.248Z,4.2
2022-09-12T02:43:03.237Z,4.2
2022-09-12T02:44:03.323Z,4.3
2022-09-12T02:45:03.258Z,4.3
2022-09-12T02:46:03.268Z,4.4
2022-09-12T02:47:03.252Z,4.3
2022-09-12T02:48:03.243Z,4.3
2022-09-12T02:49:03.277Z,4.3
2022-09-12T02:50:03.249Z,4.3
2022-09-12T02:51:03.301Z,4.3
2022-09-12T02:52:03.262Z,4.3
2022-09-12T02:53:03.252Z,4.4
2022-09-12T02:54:03.292Z,4.4
2022-09-12T02:55:03.282Z,4.4
2022-09-12T02:55:57.663Z,4.4
2022-09-12T02:57:03.249Z,4.3
2022-09-12T02:58:03.242Z,4.3
2022-09-12T02:59:03.269Z,4.3
2022-09-12T03:00:03.248Z,4.3
2022-09-12T03:01:03.282Z,4.3
2022-09-12T03:02:03.320Z,4.3
2022-09-12T03:03:03.306Z,4.3
2022-09-12T03:04:03.268Z,4.4
2022-09-12T03:05:03.240Z,4.3
2022-09-12T03:06:03.257Z,4.3
2022-09-12T03:07:03.258Z,4.4
2022-09-12T03:08:03.302Z,4.4
2022-09-12T03:09:03.263Z,4.4
2022-09-12T03:10:03.246Z,4.4
2022-09-12T03:11:03.251Z,4.4
2022-09-12T03:12:03.241Z,4.4
2022-09-12T03:13:03.240Z,4.4
2022-09-12T03:14:03.274Z,4.3
2022-09-12T03:15:03.259Z,4.3
2022-09-12T03:16:03.246Z,4.3
2022-09-12T03:17:03.239Z,4.2
2022-09-12T03:18:03.257Z,4.3
2022-09-12T03:19:03.299Z,4.3
2022-09-12T03:20:03.304Z,4.4
2022-09-12T03:21:03.249Z,4.3
2022-09-12T03:22:03.262Z,4.3
2022-09-12T03:23:03.252Z,4.4
2022-09-12T03:24:03.281Z,4.4
2022-09-12T03:25:03.257Z,4.4
2022-09-12T03:26:03.248Z,4.4
2022-09-12T03:27:03.251Z,4.5
2022-09-12T03:28:03.257Z,4.5
2022-09-12T03:29:03.281Z,4.5
2022-09-12T03:30:03.271Z,4.5
2022-09-12T03:31:03.321Z,4.5
2022-09-12T03:32:03.291Z,4.6
2022-09-12T03:33:03.253Z,4.5
2022-09-12T03:34:03.276Z,4.5
2022-09-12T03:35:03.250Z,4.5
2022-09-12T03:36:03.281Z,4.5
2022-09-12T03:37:03.269Z,4.4
2022-09-12T03:38:03.271Z,4.4
2022-09-12T03:39:03.291Z,4.4
2022-09-12T03:40:03.347Z,4.4
2022-09-12T03:41:03.270Z,4.4
2022-09-12T03:42:03.263Z,4.4
2022-09-12T03:43:03.249Z,4.4
2022-09-12T03:44:03.275Z,4.4
2022-09-12T03:45:03.273Z,4.5
2022-09-12T03:46:03.317Z,4.5
2022-09-12T03:47:04.595Z,4.6
2022-09-12T03:48:03.291Z,4.5
2022-09-12T03:49:03.259Z,4.6
2022-09-12T03:50:03.267Z,4.5
2022-09-12T03:51:03.260Z,4.5
2022-09-12T03:52:03.287Z,4.5
2022-09-12T03:53:03.264Z,4.5
2022-09-12T03:54:03.273Z,4.5
2022-09-12T03:55:03.276Z,4.5
2022-09-12T03:56:03.260Z,4.4
2022-09-12T03:57:03.265Z,4.4
2022-09-12T03:58:03.268Z,4.4
2022-09-12T03:59:03.301Z,4.5
2022-09-12T04:00:03.251Z,4.4
2022-09-12T04:01:03.343Z,4.5
2022-09-12T04:02:03.278Z,4.4
2022-09-12T04:03:03.267Z,4.3
2022-09-12T04:04:03.280Z,4.3
2022-09-12T04:05:03.270Z,4.3
2022-09-12T04:06:03.287Z,4.4
2022-09-12T04:07:03.263Z,4.4
2022-09-12T04:08:03.277Z,4.4
2022-09-12T04:09:03.281Z,4.3
2022-09-12T04:10:04.015Z,4.3
2022-09-12T04:11:03.303Z,4.4
2022-09-12T04:12:03.282Z,4.4
2022-09-12T04:13:03.269Z,4.4
2022-09-12T04:14:03.308Z,4.4
2022-09-12T04:15:03.267Z,4.4
2022-09-12T04:16:03.264Z,4.4
2022-09-12T04:17:03.278Z,4.4
2022-09-12T04:18:05.961Z,4.4
2022-09-12T04:19:03.316Z,4.4
2022-09-12T04:20:03.253Z,4.3
2022-09-12T04:21:03.273Z,4.3
2022-09-12T04:22:03.261Z,4.3
2022-09-12T04:23:03.261Z,4.4
2022-09-12T04:24:03.289Z,4.4
2022-09-12T04:25:03.260Z,4.4
2022-09-12T04:26:03.265Z,4.4
2022-09-12T04:27:07.634Z,4.3
2022-09-12T04:28:03.266Z,4.4
2022-09-12T04:29:03.277Z,4.4
2022-09-12T04:30:03.267Z,4.4
2022-09-12T04:31:03.278Z,4.4
2022-09-12T04:32:03.265Z,4.4
2022-09-12T04:33:07.511Z,4.4
2022-09-12T04:35:03.320Z,4.5
2022-09-12T04:36:03.271Z,4.5
2022-09-12T04:37:03.256Z,4.4
2022-09-12T04:38:03.272Z,4.4
2022-09-12T04:39:03.263Z,4.4
2022-09-12T04:40:03.359Z,4.4
2022-09-12T04:41:03.300Z,4.4
2022-09-12T04:42:03.289Z,4.4
2022-09-12T04:43:03.254Z,4.4
2022-09-12T04:44:03.278Z,4.4
2022-09-12T04:45:03.276Z,4.3
2022-09-12T04:46:03.314Z,4.3
2022-09-12T04:47:03.267Z,4.3
2022-09-12T04:48:03.264Z,4.4
2022-09-12T04:49:03.272Z,4.4
2022-09-12T04:50:03.265Z,4.3
2022-09-12T04:51:03.279Z,4.3
2022-09-12T04:52:03.317Z,4.4
2022-09-12T04:53:03.276Z,4.4
2022-09-12T04:54:03.264Z,4.4
2022-09-12T04:55:03.300Z,4.4
2022-09-12T04:56:03.267Z,4.4
2022-09-12T04:57:03.342Z,4.4
2022-09-12T04:58:03.298Z,4.4
2022-09-12T04:59:03.281Z,4.4
2022-09-12T05:00:07.086Z,4.3
2022-09-12T05:01:03.320Z,4.3
2022-09-12T05:02:03.368Z,4.3
2022-09-12T05:03:03.261Z,4.4
2022-09-12T05:04:03.272Z,4.4
2022-09-12T05:05:03.270Z,4.4
2022-09-12T05:06:03.271Z,4.4
2022-09-12T05:07:03.283Z,4.4
2022-09-12T05:08:03.263Z,4.5
2022-09-12T05:09:03.268Z,4.5
2022-09-12T05:10:03.274Z,4.5
2022-09-12T05:11:03.263Z,4.5
2022-09-12T05:12:05.023Z,4.5
2022-09-12T05:13:03.281Z,4.5
2022-09-12T05:14:03.329Z,4.6
2022-09-12T05:15:03.273Z,4.6
2022-09-12T05:16:03.276Z,4.6
2022-09-12T05:17:03.362Z,4.6
2022-09-12T05:18:03.276Z,4.6
2022-09-12T05:19:03.276Z,4.5
2022-09-12T05:20:03.284Z,4.4
2022-09-12T05:21:03.284Z,4.5
2022-09-12T05:22:03.275Z,4.6
2022-09-12T05:23:03.270Z,4.6
2022-09-12T05:24:03.271Z,4.5
2022-09-12T05:25:03.259Z,4.6
2022-09-12T05:26:03.280Z,4.6
2022-09-12T05:27:03.282Z,4.6
2022-09-12T05:28:03.267Z,4.6
2022-09-12T05:29:03.277Z,4.7
2022-09-12T05:30:03.271Z,4.6
2022-09-12T05:31:03.327Z,4.6
2022-09-12T05:32:03.270Z,4.7
2022-09-12T05:33:03.292Z,4.7
2022-09-12T05:34:03.273Z,4.6
2022-09-12T05:35:03.283Z,4.7
2022-09-12T05:36:03.262Z,4.7
2022-09-12T05:37:03.277Z,4.7
2022-09-12T05:38:03.268Z,4.7
2022-09-12T05:39:03.274Z,4.7
2022-09-12T05:40:03.290Z,4.6
2022-09-12T05:41:03.270Z,4.6
2022-09-12T05:42:03.286Z,4.7
2022-09-12T05:43:03.294Z,4.7
2022-09-12T05:44:03.281Z,4.7
2022-09-12T05:45:03.293Z,4.7
2022-09-12T05:46:03.325Z,4.7
2022-09-12T05:47:03.261Z,4.8
2022-09-12T05:48:03.278Z,4.7
2022-09-12T05:49:03.270Z,4.8
2022-09-12T05:50:03.315Z,4.8
2022-09-12T05:51:03.264Z,4.8
2022-09-12T05:52:03.284Z,4.8
2022-09-12T05:53:03.273Z,4.9
2022-09-12T05:54:03.276Z,4.8
2022-09-12T05:55:03.345Z,4.8
2022-09-12T05:56:03.290Z,4.8
2022-09-12T05:57:03.274Z,4.9
2022-09-12T05:58:03.266Z,4.9
2022-09-12T05:59:03.280Z,5
2022-09-12T06:00:03.309Z,5
2022-09-12T06:01:03.334Z,5
2022-09-12T06:02:03.349Z,5
2022-09-12T06:03:03.273Z,5.2
2022-09-12T06:04:03.289Z,5.2
2022-09-12T06:05:03.279Z,5.3
2022-09-12T06:06:03.264Z,5.2
2022-09-12T06:07:03.328Z,5.5
2022-09-12T06:08:03.289Z,5.5
2022-09-12T06:09:03.268Z,5.6
2022-09-12T06:10:03.316Z,5.6
2022-09-12T06:11:03.282Z,5.6
2022-09-12T06:12:03.271Z,5.6
2022-09-12T06:13:03.275Z,5.7
2022-09-12T06:14:03.302Z,5.9
2022-09-12T06:15:03.295Z,5.9
2022-09-12T06:16:03.275Z,5.8
2022-09-12T06:17:03.406Z,5.8
2022-09-12T06:18:03.271Z,5.9
2022-09-12T06:19:03.275Z,5.9
2022-09-12T06:20:03.295Z,5.9
2022-09-12T06:21:03.277Z,5.8
2022-09-12T06:22:03.285Z,5.8
2022-09-12T06:23:03.270Z,5.8
2022-09-12T06:24:03.284Z,5.7
2022-09-12T06:25:03.295Z,5.7
2022-09-12T06:26:03.329Z,5.7
2022-09-12T06:27:03.282Z,5.7
2022-09-12T06:28:03.285Z,5.8
2022-09-12T06:29:03.278Z,5.8
2022-09-12T06:30:03.299Z,5.8
2022-09-12T06:31:03.332Z,5.8
2022-09-12T06:32:03.291Z,5.8
2022-09-12T06:33:03.292Z,5.8
2022-09-12T06:34:03.275Z,5.8
2022-09-12T06:35:03.298Z,5.7
2022-09-12T06:36:03.290Z,5.7
2022-09-12T06:37:03.267Z,5.7
2022-09-12T06:38:03.276Z,5.6
2022-09-12T06:39:03.292Z,5.7
2022-09-12T06:40:03.363Z,5.7
2022-09-12T06:41:03.284Z,5.7
2022-09-12T06:42:03.292Z,5.7
2022-09-12T06:43:03.311Z,5.8
2022-09-12T06:44:03.285Z,5.8
2022-09-12T06:45:03.300Z,5.9
2022-09-12T06:46:03.359Z,5.9
2022-09-12T06:47:03.280Z,5.9
2022-09-12T06:48:03.273Z,5.9
2022-09-12T06:49:03.304Z,5.9
2022-09-12T06:50:03.298Z,5.9
2022-09-12T06:51:03.288Z,6
2022-09-12T06:52:03.274Z,6
2022-09-12T06:53:03.288Z,6.1
2022-09-12T06:54:03.279Z,6.1
2022-09-12T06:55:03.395Z,6.2
2022-09-12T06:56:03.288Z,6.1
2022-09-12T06:57:03.279Z,6.1
2022-09-12T06:58:03.284Z,6.2
2022-09-12T06:59:03.296Z,6.3
2022-09-12T07:00:03.301Z,6.3
2022-09-12T07:01:03.352Z,6.2
2022-09-12T07:02:03.356Z,6.5
2022-09-12T07:03:03.289Z,6.4
2022-09-12T07:04:03.279Z,6.4
2022-09-12T07:05:03.305Z,6.4
2022-09-12T07:06:03.293Z,6.4
2022-09-12T07:07:03.278Z,6.5
2022-09-12T07:08:03.278Z,6.4
2022-09-12T07:09:03.290Z,6.5
2022-09-12T07:10:03.301Z,6.4
2022-09-12T07:11:03.293Z,6.4
2022-09-12T07:12:03.278Z,6.5
2022-09-12T07:13:03.289Z,6.6
2022-09-12T07:14:03.291Z,6.5
2022-09-12T07:15:03.345Z,6.5
2022-09-12T07:16:03.314Z,6.6
2022-09-12T07:17:03.335Z,6.6
2022-09-12T07:18:03.271Z,6.6
2022-09-12T07:19:03.273Z,6.7
2022-09-12T07:20:03.295Z,6.6
2022-09-12T07:21:03.301Z,6.5
2022-09-12T07:22:03.279Z,6.5
2022-09-12T07:23:03.306Z,6.5
2022-09-12T07:24:03.294Z,6.5
2022-09-12T07:25:03.306Z,6.6
2022-09-12T07:26:03.282Z,6.6
2022-09-12T07:27:03.308Z,6.5
2022-09-12T07:28:03.298Z,6.7
2022-09-12T07:29:32.318Z,6.8
2022-09-12T07:30:03.312Z,6.6
2022-09-12T07:31:03.366Z,6.6
2022-09-12T07:32:03.281Z,6.6
2022-09-12T07:33:03.292Z,6.6
2022-09-12T07:34:03.285Z,6.6
2022-09-12T07:35:03.338Z,6.7
2022-09-12T07:36:03.303Z,6.7
2022-09-12T07:37:03.293Z,6.7
2022-09-12T07:38:03.295Z,6.6
2022-09-12T07:39:03.298Z,6.6
2022-09-12T07:40:03.422Z,6.7
2022-09-12T07:41:03.309Z,6.7
2022-09-12T07:42:03.312Z,6.7
2022-09-12T07:43:03.298Z,6.7
2022-09-12T07:44:03.299Z,6.7
2022-09-12T07:45:03.316Z,6.7
2022-09-12T07:46:03.383Z,6.8
2022-09-12T07:47:03.309Z,6.8
2022-09-12T07:48:03.317Z,6.8
2022-09-12T07:49:03.293Z,6.9
2022-09-12T07:50:03.335Z,6.9
2022-09-12T07:51:03.366Z,6.9
2022-09-12T07:52:03.291Z,6.9
2022-09-12T07:53:03.318Z,6.9
2022-09-12T07:54:03.299Z,6.9
2022-09-12T07:55:03.325Z,6.9
2022-09-12T07:56:03.320Z,7
2022-09-12T07:57:03.293Z,7
2022-09-12T07:58:03.290Z,7
2022-09-12T07:59:03.304Z,7
2022-09-12T08:00:03.307Z,7
2022-09-12T08:01:03.357Z,7
2022-09-12T08:02:03.350Z,7
2022-09-12T08:03:03.299Z,7.1
2022-09-12T08:04:03.297Z,7.2
2022-09-12T08:05:03.329Z,7.2
2022-09-12T08:06:03.304Z,7.2
2022-09-12T08:07:03.289Z,7.2
2022-09-12T08:08:03.344Z,7.3
2022-09-12T08:09:03.307Z,7.3
2022-09-12T08:10:03.325Z,7.3
2022-09-12T08:11:03.296Z,7.4
2022-09-12T08:12:03.304Z,7.3
2022-09-12T08:13:03.299Z,7.3
2022-09-12T08:14:03.319Z,7.6
2022-09-12T08:15:03.310Z,7.6
2022-09-12T08:16:03.379Z,7.7
2022-09-12T08:17:03.313Z,7.7
2022-09-12T08:18:03.330Z,7.7
2022-09-12T08:19:03.296Z,7.7
2022-09-12T08:20:03.338Z,7.7
2022-09-12T08:21:03.297Z,7.7
2022-09-12T08:22:03.303Z,7.7
2022-09-12T08:23:03.307Z,7.7
2022-09-12T08:24:03.308Z,7.8
2022-09-12T08:25:03.304Z,7.8
2022-09-12T08:26:06.144Z,7.7
2022-09-12T08:27:03.352Z,7.6
2022-09-12T08:28:03.305Z,7.7
2022-09-12T08:29:03.306Z,8
2022-09-12T08:30:03.342Z,7.9
2022-09-12T08:31:03.385Z,7.9
2022-09-12T08:32:03.306Z,7.9
2022-09-12T08:33:03.317Z,7.9
2022-09-12T08:34:03.316Z,8
2022-09-12T08:35:03.318Z,8.1
2022-09-12T08:36:03.302Z,8.1
2022-09-12T08:37:03.300Z,8.3
2022-09-12T08:38:03.309Z,8.2
2022-09-12T08:39:03.309Z,8
2022-09-12T08:40:03.359Z,7.8
2022-09-12T08:41:03.316Z,8
2022-09-12T08:42:03.443Z,7.9
2022-09-12T08:43:03.299Z,7.9
2022-09-12T08:44:03.354Z,7.9
2022-09-12T08:45:03.329Z,8.2
2022-09-12T08:46:03.355Z,8.1
2022-09-12T08:47:03.293Z,8
2022-09-12T08:48:03.334Z,8
2022-09-12T08:49:03.336Z,8
2022-09-12T08:50:03.325Z,8
2022-09-12T08:51:03.323Z,7.8
2022-09-12T08:52:03.319Z,7.8
2022-09-12T08:53:03.353Z,8
2022-09-12T08:54:03.312Z,8.1
2022-09-12T08:55:03.323Z,8
2022-09-12T08:56:03.318Z,8
2022-09-12T08:57:03.322Z,8
2022-09-12T08:58:03.308Z,8.2
2022-09-12T08:59:03.308Z,8.2
2022-09-12T09:00:03.329Z,8.3
2022-09-12T09:01:03.446Z,8.5
2022-09-12T09:02:03.365Z,8.5
2022-09-12T09:03:03.308Z,8.6
2022-09-12T09:04:03.322Z,8.5
2022-09-12T09:05:03.335Z,8.5
2022-09-12T09:06:03.306Z,8.3
2022-09-12T09:07:03.323Z,8.2
2022-09-12T09:08:03.308Z,8.2
2022-09-12T09:09:03.313Z,8.3
2022-09-12T09:10:03.332Z,8.3
2022-09-12T09:11:03.340Z,8.3
2022-09-12T09:12:03.315Z,8.6
2022-09-12T09:13:03.309Z,8.5
2022-09-12T09:14:05.379Z,8.5
2022-09-12T09:15:03.333Z,8.4
2022-09-12T09:16:03.400Z,8.5
2022-09-12T09:17:04.193Z,8.5
2022-09-12T09:18:03.329Z,8.6
2022-09-12T09:19:03.316Z,8.7
2022-09-12T09:20:03.397Z,8.9
2022-09-12T09:21:03.319Z,8.8
2022-09-12T09:22:03.319Z,9
2022-09-12T09:23:03.321Z,9.1
2022-09-12T09:24:03.316Z,8.9
2022-09-12T09:25:03.389Z,8.8
2022-09-12T09:26:03.320Z,8.7
2022-09-12T09:27:03.324Z,8.7
2022-09-12T09:28:03.322Z,8.7
2022-09-12T09:29:03.331Z,9
2022-09-12T09:30:03.336Z,9.1
2022-09-12T09:31:03.486Z,9.2
2022-09-12T09:32:03.315Z,9.5
2022-09-12T09:33:03.312Z,9.2
2022-09-12T09:34:03.325Z,9
2022-09-12T09:35:03.338Z,9.1
2022-09-12T09:36:03.323Z,9.1
2022-09-12T09:37:03.323Z,9.3
2022-09-12T09:38:03.319Z,9.2
2022-09-12T09:39:03.324Z,9.6
2022-09-12T09:40:03.385Z,9.7
2022-09-12T09:41:03.348Z,9.7
2022-09-12T09:42:03.323Z,9.6
2022-09-12T09:43:03.327Z,9.5
2022-09-12T09:44:03.364Z,9.4
2022-09-12T09:45:03.360Z,9.5
2022-09-12T09:46:03.389Z,9.8
2022-09-12T09:47:03.358Z,9.5
2022-09-12T09:48:03.323Z,9.5
2022-09-12T09:49:03.329Z,9.3
2022-09-12T09:50:03.331Z,9.4
2022-09-12T09:51:03.363Z,10.2
2022-09-12T09:52:03.323Z,10.6
2022-09-12T09:53:03.326Z,10.4
2022-09-12T09:54:03.657Z,10.2
2022-09-12T09:55:03.355Z,9.9
2022-09-12T09:56:03.330Z,9.9
2022-09-12T09:57:03.337Z,10.3
2022-09-12T09:58:03.322Z,10.4
2022-09-12T09:59:03.387Z,10.2
2022-09-12T10:00:03.412Z,10.1
2022-09-12T10:01:03.487Z,10.4
2022-09-12T10:02:03.508Z,10.8
2022-09-12T10:03:03.341Z,10.8
2022-09-12T10:04:03.340Z,10.8
2022-09-12T10:05:03.356Z,11.1
2022-09-12T10:06:03.336Z,11.1
2022-09-12T10:07:03.329Z,10.6
2022-09-12T10:08:03.328Z,10.7
2022-09-12T10:09:03.346Z,10.5
2022-09-12T10:10:03.360Z,10.8
2022-09-12T10:11:03.341Z,10.9
2022-09-12T10:12:03.328Z,10.8
2022-09-12T10:13:03.332Z,10.8
2022-09-12T10:14:03.341Z,11.3
2022-09-12T10:15:03.346Z,11.2
2022-09-12T10:16:03.466Z,10.9
2022-09-12T10:17:10.188Z,10.6
2022-09-12T10:18:03.326Z,10.8
2022-09-12T10:19:03.341Z,11
2022-09-12T10:20:22.428Z,11.4
2022-09-12T10:21:03.340Z,11.5
2022-09-12T10:22:03.377Z,11.1
2022-09-12T10:23:03.342Z,10.7
2022-09-12T10:24:03.341Z,11.5
2022-09-12T10:25:03.352Z,11.8
2022-09-12T10:26:03.326Z,11.7
2022-09-12T10:27:03.325Z,11.5
2022-09-12T10:28:03.373Z,11.2
2022-09-12T10:29:03.355Z,11.4
2022-09-12T10:30:03.365Z,11.3
2022-09-12T10:31:03.423Z,11.5
2022-09-12T10:32:03.337Z,11
2022-09-12T10:33:03.349Z,11
2022-09-12T10:34:03.342Z,11
2022-09-12T10:35:03.351Z,11.2
2022-09-12T10:36:03.347Z,11.8
2022-09-12T10:37:03.347Z,11.7
2022-09-12T10:38:03.334Z,11.5
2022-09-12T10:39:03.339Z,11.4
2022-09-12T10:40:03.419Z,11.7
2022-09-12T10:41:03.345Z,12
2022-09-12T10:42:03.379Z,12.3
2022-09-12T10:43:03.512Z,12.1
2022-09-12T10:44:03.526Z,11.8
2022-09-12T10:45:03.590Z,11.6
2022-09-12T10:46:03.894Z,11.7
2022-09-12T10:47:03.361Z,11.7
2022-09-12T10:48:07.488Z,11.7
2022-09-12T10:49:03.341Z,11.4
2022-09-12T10:50:03.415Z,11.5
2022-09-12T10:51:03.337Z,12.1
2022-09-12T10:52:03.356Z,12.2
2022-09-12T10:53:03.463Z,12.1
2022-09-12T10:54:03.355Z,12.4
2022-09-12T10:55:03.390Z,11.8
2022-09-12T10:56:03.346Z,11.9
2022-09-12T10:58:03.378Z,12.7
2022-09-12T10:59:03.337Z,12.3
2022-09-12T11:00:03.369Z,12.3
2022-09-12T11:01:03.419Z,11.7
2022-09-12T11:02:03.430Z,12.1
2022-09-12T11:03:03.350Z,12.8
2022-09-12T11:04:03.377Z,12.4
2022-09-12T11:05:03.369Z,12.4
2022-09-12T11:06:03.351Z,12.3
2022-09-12T11:07:03.336Z,12.7
2022-09-12T11:08:03.371Z,12.9
2022-09-12T11:09:03.352Z,12.7
2022-09-12T11:10:03.360Z,12.2
2022-09-12T11:11:03.365Z,11.9
2022-09-12T11:12:03.402Z,12.7
2022-09-12T11:13:03.361Z,12.5
2022-09-12T11:14:03.384Z,12.2
2022-09-12T11:15:03.383Z,12.8
2022-09-12T11:16:03.435Z,12.8
2022-09-12T11:16:57.686Z,13
2022-09-12T11:18:03.363Z,13.4
2022-09-12T11:19:03.374Z,13
2022-09-12T11:20:03.384Z,13.3
2022-09-12T11:21:03.424Z,13.4
2022-09-12T11:22:03.365Z,13.3
2022-09-12T11:23:03.365Z,13
2022-09-12T11:24:03.383Z,13.1
2022-09-12T11:25:03.390Z,13.3
2022-09-12T11:26:03.368Z,13.5
2022-09-12T11:27:03.356Z,13.5
2022-09-12T11:28:03.377Z,13.2
2022-09-12T11:29:03.358Z,13.1
2022-09-12T11:30:03.384Z,12.7
2022-09-12T11:31:03.420Z,13.1
2022-09-12T11:32:03.361Z,13.6
2022-09-12T11:33:03.364Z,13.9
2022-09-12T11:34:03.366Z,13.5
2022-09-12T11:35:03.377Z,13.4
2022-09-12T11:36:03.438Z,13.2
2022-09-12T11:37:06.378Z,13.3
2022-09-12T11:38:03.373Z,13.4
2022-09-12T11:39:03.366Z,13.8
2022-09-12T11:40:03.410Z,13.8
2022-09-12T11:41:03.364Z,13.9
2022-09-12T11:42:03.356Z,13.6
2022-09-12T11:43:03.371Z,13.5
2022-09-12T11:44:03.369Z,13.2
2022-09-12T11:45:03.384Z,14
2022-09-12T11:46:03.420Z,13.6
2022-09-12T11:47:03.418Z,13.8
2022-09-12T11:48:03.367Z,14
2022-09-12T11:49:03.367Z,14.3
2022-09-12T11:50:03.394Z,14.4
2022-09-12T11:51:03.367Z,14
2022-09-12T11:52:03.372Z,13.6
2022-09-12T11:53:03.366Z,14
2022-09-12T11:54:03.381Z,14.2
2022-09-12T11:55:03.424Z,14.3
2022-09-12T11:56:03.371Z,14.7
2022-09-12T11:57:03.367Z,14.7
2022-09-12T11:58:03.390Z,14.8
2022-09-12T11:59:03.376Z,14.5
2022-09-12T12:00:03.385Z,14.3
2022-09-12T12:01:03.377Z,14.2
2022-09-12T12:02:03.438Z,14.2
2022-09-12T12:03:03.374Z,14.2
2022-09-12T12:04:03.375Z,14.2
2022-09-12T12:05:03.396Z,14.2
2022-09-12T12:06:03.381Z,14
2022-09-12T12:07:03.371Z,14.3
2022-09-12T12:08:03.431Z,14.2
2022-09-12T12:09:03.379Z,14.9
2022-09-12T12:10:03.399Z,14.6
2022-09-12T12:11:03.372Z,14.8
2022-09-12T12:12:03.389Z,14.9
2022-09-12T12:13:03.399Z,14.7
2022-09-12T12:14:03.373Z,14.4
2022-09-12T12:15:03.415Z,14.1
2022-09-12T12:16:03.485Z,14.1
2022-09-12T12:17:03.379Z,13.9
2022-09-12T12:18:03.379Z,14.2
2022-09-12T12:19:06.388Z,14.2
2022-09-12T12:20:07.453Z,13.6
2022-09-12T12:21:03.374Z,14.2
2022-09-12T12:22:03.385Z,15.1
2022-09-12T12:23:03.391Z,14.4
2022-09-12T12:24:03.373Z,14.6
2022-09-12T12:25:03.415Z,14.9
2022-09-12T12:26:03.444Z,14.8
2022-09-12T12:27:03.393Z,14.7
2022-09-12T12:28:03.377Z,14.5
2022-09-12T12:29:03.390Z,14.6
2022-09-12T12:30:03.506Z,14.4
2022-09-12T12:31:03.541Z,14.1
2022-09-12T12:32:03.433Z,14.1
2022-09-12T12:33:03.388Z,14.3
2022-09-12T12:34:03.380Z,14.3
2022-09-12T12:35:03.417Z,14.3
2022-09-12T12:36:03.387Z,14.7
2022-09-12T12:37:07.257Z,14.5
2022-09-12T12:38:03.395Z,14.4
2022-09-12T12:39:03.386Z,14.1
2022-09-12T12:40:03.438Z,14.2
2022-09-12T12:41:03.394Z,14.4
2022-09-12T12:42:03.396Z,14.7
2022-09-12T12:43:03.383Z,14.6
2022-09-12T12:44:03.383Z,14.6
2022-09-12T12:45:03.403Z,14.8
2022-09-12T12:46:03.408Z,14.8
2022-09-12T12:47:03.380Z,14.9
2022-09-12T12:48:07.667Z,14.7
2022-09-12T12:49:03.388Z,14.7
2022-09-12T12:50:03.401Z,14.7
2022-09-12T12:51:03.398Z,14.7
2022-09-12T12:52:03.397Z,14.7
2022-09-12T12:53:03.392Z,14.8
2022-09-12T12:54:03.388Z,14.8
2022-09-12T12:55:03.407Z,14.5
2022-09-12T12:56:03.399Z,14.3
2022-09-12T12:57:03.414Z,14.1
2022-09-12T12:59:03.404Z,14.7
2022-09-12T13:00:03.401Z,14.9
2022-09-12T13:01:03.401Z,15.1
2022-09-12T13:02:03.453Z,15.2
2022-09-12T13:03:03.384Z,15.2
2022-09-12T13:04:03.391Z,15
2022-09-12T13:05:03.409Z,14.8
2022-09-12T13:06:03.400Z,14.6
2022-09-12T13:07:07.641Z,14.6
2022-09-12T13:08:03.549Z,14.6
2022-09-12T13:09:03.501Z,15.1
2022-09-12T13:10:03.417Z,15.1
2022-09-12T13:11:03.403Z,15.9
2022-09-12T13:12:03.397Z,15.4
2022-09-12T13:13:03.401Z,15.2
2022-09-12T13:14:03.403Z,15
2022-09-12T13:15:03.433Z,14.7
2022-09-12T13:16:03.486Z,14.5
2022-09-12T13:17:03.402Z,14.7
2022-09-12T13:18:03.407Z,15.6
2022-09-12T13:19:03.405Z,15.8
2022-09-12T13:20:26.141Z,15.3
2022-09-12T13:21:03.408Z,15.8
2022-09-12T13:22:03.405Z,15.7
2022-09-12T13:23:03.419Z,15.7
2022-09-12T13:24:03.394Z,15.6
2022-09-12T13:25:03.420Z,15.2
2022-09-12T13:26:03.411Z,15.2
2022-09-12T13:27:03.395Z,15.3
2022-09-12T13:28:03.429Z,15.7
2022-09-12T13:29:03.407Z,15.4
2022-09-12T13:30:03.448Z,15.5
2022-09-12T13:32:03.416Z,14.9
2022-09-12T13:33:03.466Z,15
2022-09-12T13:34:03.406Z,14.7
2022-09-12T13:35:03.437Z,14.7
2022-09-12T13:36:03.422Z,14.9
2022-09-12T13:37:03.425Z,15.3
2022-09-12T13:39:03.427Z,15
2022-09-12T13:40:03.462Z,15.7
2022-09-12T13:40:53.164Z,15.1
2022-09-12T13:41:03.436Z,15.6
2022-09-12T13:42:03.633Z,15.4
2022-09-12T13:43:03.583Z,15.2
2022-09-12T13:44:03.670Z,15.2
2022-09-12T13:45:03.693Z,15.3
2022-09-12T13:49:03.408Z,15.3